Time,TemperatureF,DewpointF,PressureIn,WindDirection,WindDirectionDegrees,WindSpeedMPH,WindSpeedGustMPH,Humidity,HourlyPrecipIn,Conditions,Clouds,dailyrainin,SoftwareType,DateUTC
2014-09-18 00:03:00,53.2,51.6,30.02,South,180,0.0,0.0,94,0.00,,,0.00,meteohub,2014-09-18 05:03:00,
2014-09-18 00:08:00,53.1,51.4,30.02,South,180,0.0,0.0,94,0.00,,,0.00,meteohub,2014-09-18 05:08:00,
2014-09-18 00:13:00,52.9,51.3,30.02,South,181,0.0,0.0,94,0.00,,,0.00,meteohub,2014-09-18 05:13:00,
2014-09-18 00:18:00,52.5,50.9,30.02,South,180,0.0,0.0,94,0.00,,,0.00,meteohub,2014-09-18 05:18:00,
2014-09-18 00:23:00,52.3,50.9,30.02,South,180,0.0,0.0,95,0.00,,,0.00,meteohub,2014-09-18 05:23:00,
2014-09-18 00:28:00,52.3,50.9,30.02,South,181,0.0,0.0,95,0.00,,,0.00,meteohub,2014-09-18 05:28:00,
2014-09-18 00:33:00,52.5,51.1,30.02,South,180,0.0,0.0,95,0.00,,,0.00,meteohub,2014-09-18 05:33:00,
2014-09-18 00:38:00,52.5,51.1,30.02,South,181,0.0,0.0,95,0.00,,,0.00,meteohub,2014-09-18 05:38:00,
2014-09-18 00:43:00,52.7,51.3,30.02,South,180,0.0,0.0,95,0.00,,,0.00,meteohub,2014-09-18 05:43:00,
2014-09-18 00:48:00,53.1,51.6,30.03,South,180,0.0,0.0,95,0.00,,,0.00,meteohub,2014-09-18 05:48:00,
2014-09-18 00:53:00,53.1,51.6,30.02,South,180,0.0,0.0,95,0.00,,,0.00,meteohub,2014-09-18 05:53:00,
2014-09-18 00:58:00,52.9,51.3,30.02,South,180,1.0,0.0,94,0.00,,,0.00,meteohub,2014-09-18 05:58:00,
2014-09-18 01:04:00,52.3,50.7,30.02,South,178,1.0,1.0,94,0.00,,,0.00,meteohub,2014-09-18 06:04:00,
2014-09-18 01:08:00,51.4,49.5,30.02,East,95,1.0,1.0,93,0.00,,,0.00,meteohub,2014-09-18 06:08:00,
2014-09-18 01:13:00,50.5,48.9,30.03,ENE,69,3.0,3.0,94,0.00,,,0.00,meteohub,2014-09-18 06:13:00,
2014-09-18 01:19:00,49.6,48.0,30.03,ENE,64,4.0,4.0,94,0.00,,,0.00,meteohub,2014-09-18 06:19:00,
2014-09-18 01:24:00,49.3,47.8,30.03,NE,53,5.0,9.0,95,0.00,,,0.00,meteohub,2014-09-18 06:24:00,
2014-09-18 01:29:00,49.8,48.4,30.04,NE,56,2.0,9.0,95,0.00,,,0.00,meteohub,2014-09-18 06:29:00,
2014-09-18 01:34:00,50.4,48.9,30.04,NE,55,2.0,9.0,95,0.00,,,0.00,meteohub,2014-09-18 06:34:00,
2014-09-18 01:39:00,51.1,49.6,30.03,NE,43,0.0,6.0,95,0.00,,,0.00,meteohub,2014-09-18 06:39:00,
2014-09-18 01:44:00,51.4,50.0,30.04,NE,55,3.0,3.0,95,0.00,,,0.00,meteohub,2014-09-18 06:44:00,
2014-09-18 01:49:00,51.6,50.2,30.04,NE,56,2.0,4.0,95,0.00,,,0.00,meteohub,2014-09-18 06:49:00,
2014-09-18 01:54:00,51.6,50.2,30.04,NE,56,1.0,4.0,95,0.00,,,0.00,meteohub,2014-09-18 06:54:00,
2014-09-18 01:59:00,52.0,50.4,30.04,NE,56,0.0,4.0,94,0.00,,,0.00,meteohub,2014-09-18 06:59:00,
2014-09-18 02:04:00,52.0,50.4,30.04,NE,54,0.0,3.0,94,0.00,,,0.00,meteohub,2014-09-18 07:04:00,
2014-09-18 02:09:00,52.0,50.4,30.04,NE,49,1.0,2.0,94,0.00,,,0.00,meteohub,2014-09-18 07:09:00,
2014-09-18 02:14:00,52.2,50.5,30.04,NE,45,2.0,2.0,94,0.00,,,0.00,meteohub,2014-09-18 07:14:00,
2014-09-18 02:19:00,52.3,50.4,30.04,NE,43,0.0,2.0,93,0.00,,,0.00,meteohub,2014-09-18 07:19:00,
2014-09-18 02:24:00,52.3,50.4,30.03,NE,44,0.0,2.0,93,0.00,,,0.00,meteohub,2014-09-18 07:24:00,
2014-09-18 02:29:00,52.3,50.4,30.03,NE,43,1.0,2.0,93,0.00,,,0.00,meteohub,2014-09-18 07:29:00,
2014-09-18 02:34:00,52.3,50.4,30.03,NE,43,1.0,2.0,93,0.00,,,0.00,meteohub,2014-09-18 07:34:00,
2014-09-18 02:39:00,52.2,50.2,30.03,NE,43,0.0,2.0,93,0.00,,,0.00,meteohub,2014-09-18 07:39:00,
2014-09-18 02:44:00,52.0,50.0,30.03,NE,43,1.0,2.0,93,0.00,,,0.00,meteohub,2014-09-18 07:44:00,
2014-09-18 02:48:00,51.6,50.0,30.03,NE,43,0.0,2.0,94,0.00,,,0.00,meteohub,2014-09-18 07:48:00,
2014-09-18 02:53:00,51.4,49.8,30.03,NE,43,0.0,1.0,94,0.00,,,0.00,meteohub,2014-09-18 07:53:00,
2014-09-18 02:58:00,51.3,49.6,30.03,NE,43,0.0,1.0,94,0.00,,,0.00,meteohub,2014-09-18 07:58:00,
2014-09-18 03:03:00,51.1,49.5,30.03,NE,43,0.0,0.0,94,0.00,,,0.00,meteohub,2014-09-18 08:03:00,
2014-09-18 03:08:00,50.9,49.3,30.03,NE,43,0.0,0.0,94,0.00,,,0.00,meteohub,2014-09-18 08:08:00,
2014-09-18 03:13:00,50.7,49.1,30.03,NE,45,1.0,0.0,94,0.00,,,0.00,meteohub,2014-09-18 08:13:00,
2014-09-18 03:18:00,50.5,48.9,30.03,NE,45,0.0,1.0,94,0.00,,,0.00,meteohub,2014-09-18 08:18:00,
2014-09-18 03:23:00,50.4,48.9,30.03,NE,46,1.0,1.0,95,0.00,,,0.00,meteohub,2014-09-18 08:23:00,
2014-09-18 03:28:00,50.5,49.1,30.03,ESE,109,2.0,2.0,95,0.00,,,0.00,meteohub,2014-09-18 08:28:00,
2014-09-18 03:33:00,50.4,48.7,30.03,ESE,115,2.0,2.0,94,0.00,,,0.00,meteohub,2014-09-18 08:33:00,
2014-09-18 03:38:00,49.6,48.0,30.03,SE,139,4.0,4.0,94,0.00,,,0.00,meteohub,2014-09-18 08:38:00,
2014-09-18 03:43:00,48.9,47.3,30.03,SE,129,3.0,3.0,94,0.00,,,0.00,meteohub,2014-09-18 08:43:00,
2014-09-18 03:48:00,48.7,47.3,30.03,ESE,107,2.0,5.0,95,0.00,,,0.00,meteohub,2014-09-18 08:48:00,
2014-09-18 03:53:00,48.7,47.3,30.03,East,88,2.0,5.0,95,0.00,,,0.00,meteohub,2014-09-18 08:53:00,
2014-09-18 03:58:00,48.6,47.1,30.03,East,94,1.0,3.0,95,0.00,,,0.00,meteohub,2014-09-18 08:58:00,
2014-09-18 04:03:00,48.2,46.8,30.03,East,93,0.0,3.0,95,0.00,,,0.00,meteohub,2014-09-18 09:03:00,
2014-09-18 04:08:00,47.8,46.4,30.04,SE,142,2.0,3.0,95,0.00,,,0.00,meteohub,2014-09-18 09:08:00,
2014-09-18 04:14:00,47.7,46.2,30.03,ESE,105,1.0,2.0,95,0.00,,,0.00,meteohub,2014-09-18 09:14:00,
2014-09-18 04:19:00,47.5,46.0,30.04,ESE,105,1.0,3.0,95,0.00,,,0.00,meteohub,2014-09-18 09:19:00,
2014-09-18 04:24:00,47.5,46.0,30.03,ESE,105,1.0,3.0,95,0.00,,,0.00,meteohub,2014-09-18 09:24:00,
2014-09-18 04:29:00,47.7,46.2,30.04,ESE,111,1.0,2.0,95,0.00,,,0.00,meteohub,2014-09-18 09:29:00,
2014-09-18 04:34:00,47.7,46.2,30.04,ESE,108,1.0,3.0,95,0.00,,,0.00,meteohub,2014-09-18 09:34:00,
2014-09-18 04:39:00,47.7,46.2,30.04,East,93,2.0,3.0,95,0.00,,,0.00,meteohub,2014-09-18 09:39:00,
2014-09-18 04:44:00,47.8,46.4,30.04,East,90,2.0,3.0,95,0.00,,,0.00,meteohub,2014-09-18 09:44:00,
2014-09-18 04:49:00,47.7,46.2,30.04,East,97,1.0,2.0,95,0.00,,,0.00,meteohub,2014-09-18 09:49:00,
2014-09-18 04:54:00,47.7,46.2,30.04,East,95,1.0,2.0,95,0.00,,,0.00,meteohub,2014-09-18 09:54:00,
2014-09-18 04:59:00,47.5,46.0,30.04,East,100,1.0,2.0,95,0.00,,,0.00,meteohub,2014-09-18 09:59:00,
2014-09-18 05:04:00,47.5,46.0,30.04,East,101,1.0,2.0,95,0.00,,,0.00,meteohub,2014-09-18 10:04:00,
2014-09-18 05:09:00,47.7,46.2,30.04,ESE,107,1.0,2.0,95,0.00,,,0.00,meteohub,2014-09-18 10:09:00,
2014-09-18 05:14:00,47.7,46.2,30.04,ESE,107,1.0,2.0,95,0.00,,,0.00,meteohub,2014-09-18 10:14:00,
2014-09-18 05:19:00,47.7,46.2,30.05,ESE,104,1.0,2.0,95,0.00,,,0.00,meteohub,2014-09-18 10:19:00,
2014-09-18 05:24:00,47.7,46.2,30.05,ESE,107,1.0,2.0,95,0.00,,,0.00,meteohub,2014-09-18 10:24:00,
2014-09-18 05:25:00,47.7,46.2,30.05,ESE,106,1.0,2.0,95,0.00,,,0.00,meteohub,2014-09-18 10:25:00,
2014-09-18 05:30:00,47.7,46.2,30.05,ESE,106,2.0,2.0,95,0.00,,,0.00,meteohub,2014-09-18 10:30:00,
2014-09-18 05:35:00,47.7,46.2,30.05,ESE,107,2.0,2.0,95,0.00,,,0.00,meteohub,2014-09-18 10:35:00,
2014-09-18 05:40:00,47.8,46.4,30.05,ESE,112,1.0,2.0,95,0.00,,,0.00,meteohub,2014-09-18 10:40:00,
2014-09-18 05:45:00,47.7,46.2,30.05,ESE,111,1.0,2.0,95,0.00,,,0.00,meteohub,2014-09-18 10:45:00,
2014-09-18 05:50:00,47.7,46.2,30.06,ESE,110,0.0,2.0,95,0.00,,,0.00,meteohub,2014-09-18 10:50:00,
2014-09-18 05:53:00,47.7,46.2,30.06,ESE,110,1.0,1.0,95,0.00,,,0.00,meteohub,2014-09-18 10:53:00,
2014-09-18 05:58:00,47.5,46.0,30.06,ESE,111,0.0,1.0,95,0.00,,,0.00,meteohub,2014-09-18 10:58:00,
2014-09-18 06:03:00,47.5,46.0,30.06,ESE,110,1.0,1.0,95,0.00,,,0.00,meteohub,2014-09-18 11:03:00,
2014-09-18 06:08:00,47.5,46.0,30.06,ESE,110,1.0,1.0,95,0.00,,,0.00,meteohub,2014-09-18 11:08:00,
2014-09-18 06:13:00,47.5,46.0,30.06,ESE,105,1.0,1.0,95,0.00,,,0.00,meteohub,2014-09-18 11:13:00,
2014-09-18 06:18:00,47.3,45.9,30.06,ESE,105,1.0,1.0,95,0.00,,,0.00,meteohub,2014-09-18 11:18:00,
2014-09-18 06:23:00,47.1,45.7,30.06,ESE,105,1.0,1.0,95,0.00,,,0.00,meteohub,2014-09-18 11:23:00,
2014-09-18 06:28:00,47.1,45.7,30.06,ESE,105,1.0,1.0,95,0.00,,,0.00,meteohub,2014-09-18 11:28:00,
2014-09-18 06:33:00,47.1,45.7,30.06,ESE,104,1.0,1.0,95,0.00,,,0.00,meteohub,2014-09-18 11:33:00,
2014-09-18 06:38:00,47.1,45.7,30.07,ESE,105,1.0,1.0,95,0.00,,,0.00,meteohub,2014-09-18 11:38:00,
2014-09-18 06:43:00,47.1,45.7,30.07,ESE,105,1.0,1.0,95,0.00,,,0.00,meteohub,2014-09-18 11:43:00,
2014-09-18 06:48:00,47.3,45.9,30.07,ESE,105,0.0,1.0,95,0.00,,,0.00,meteohub,2014-09-18 11:48:00,
2014-09-18 06:53:00,47.3,45.9,30.08,ESE,104,0.0,1.0,95,0.00,,,0.00,meteohub,2014-09-18 11:53:00,
2014-09-18 06:58:00,47.5,46.0,30.08,ESE,105,1.0,1.0,95,0.00,,,0.00,meteohub,2014-09-18 11:58:00,
2014-09-18 07:03:00,47.5,46.0,30.08,ESE,107,2.0,2.0,95,0.00,,,0.00,meteohub,2014-09-18 12:03:00,
2014-09-18 07:08:00,47.7,46.2,30.08,ESE,106,0.0,2.0,95,0.00,,,0.00,meteohub,2014-09-18 12:08:00,
2014-09-18 07:13:00,47.8,46.4,30.09,ESE,107,1.0,2.0,95,0.00,,,0.00,meteohub,2014-09-18 12:13:00,
2014-09-18 07:18:00,48.2,46.8,30.09,ESE,105,0.0,2.0,95,0.00,,,0.00,meteohub,2014-09-18 12:18:00,
2014-09-18 07:23:00,48.4,46.9,30.10,WSW,245,1.0,1.0,95,0.00,,,0.00,meteohub,2014-09-18 12:23:00,
2014-09-18 07:28:00,48.4,46.9,30.10,WSW,256,0.0,2.0,95,0.00,,,0.00,meteohub,2014-09-18 12:28:00,
2014-09-18 07:33:00,48.4,46.9,30.10,WNW,292,0.0,2.0,95,0.00,,,0.00,meteohub,2014-09-18 12:33:00,
2014-09-18 07:38:00,48.7,47.3,30.10,WNW,292,0.0,2.0,95,0.00,,,0.00,meteohub,2014-09-18 12:38:00,
2014-09-18 07:43:00,49.3,47.8,30.10,WNW,293,0.0,2.0,95,0.00,,,0.00,meteohub,2014-09-18 12:43:00,
2014-09-18 07:48:00,49.3,47.7,30.10,WNW,292,0.0,1.0,94,0.00,,,0.00,meteohub,2014-09-18 12:48:00,
2014-09-18 07:53:00,49.6,48.2,30.11,NW,306,0.0,1.0,95,0.00,,,0.00,meteohub,2014-09-18 12:53:00,
2014-09-18 07:58:00,50.4,48.9,30.10,NW,305,0.0,1.0,95,0.00,,,0.00,meteohub,2014-09-18 12:58:00,
2014-09-18 08:03:00,51.3,49.6,30.10,North,11,0.0,1.0,94,0.00,,,0.00,meteohub,2014-09-18 13:03:00,
2014-09-18 08:08:00,52.2,50.5,30.11,North,11,0.0,1.0,94,0.00,,,0.00,meteohub,2014-09-18 13:08:00,
2014-09-18 08:13:00,52.3,50.4,30.10,NE,43,1.0,1.0,93,0.00,,,0.00,meteohub,2014-09-18 13:13:00,
2014-09-18 08:14:00,52.3,50.4,30.10,NE,44,1.0,1.0,93,0.00,,,0.00,meteohub,2014-09-18 13:14:00,
2014-09-18 08:19:00,52.3,50.4,30.10,ENE,73,1.0,2.0,93,0.00,,,0.00,meteohub,2014-09-18 13:19:00,
2014-09-18 08:24:00,52.5,50.5,30.10,ENE,77,3.0,3.0,93,0.00,,,0.00,meteohub,2014-09-18 13:24:00,
2014-09-18 08:29:00,53.1,51.1,30.10,ENE,77,2.0,3.0,93,0.00,,,0.00,meteohub,2014-09-18 13:29:00,
2014-09-18 08:34:00,53.6,51.6,30.11,ESE,116,1.0,3.0,93,0.00,,,0.00,meteohub,2014-09-18 13:34:00,
2014-09-18 08:39:00,54.5,52.5,30.11,East,92,1.0,3.0,93,0.00,,,0.00,meteohub,2014-09-18 13:39:00,
2014-09-18 08:44:00,55.0,53.1,30.11,ENE,62,2.0,4.0,93,0.00,,,0.00,meteohub,2014-09-18 13:44:00,
2014-09-18 08:49:00,55.8,53.8,30.11,ENE,68,1.0,4.0,93,0.00,,,0.00,meteohub,2014-09-18 13:49:00,
2014-09-18 08:54:00,56.5,54.5,30.11,ENE,78,2.0,4.0,93,0.00,,,0.00,meteohub,2014-09-18 13:54:00,
2014-09-18 08:59:00,57.6,55.0,30.11,East,97,1.0,4.0,91,0.00,,,0.00,meteohub,2014-09-18 13:59:00,
2014-09-18 09:04:00,58.6,55.4,30.11,ENE,78,2.0,4.0,89,0.00,,,0.00,meteohub,2014-09-18 14:04:00,
2014-09-18 09:09:00,59.5,55.9,30.11,ESE,119,2.0,4.0,88,0.00,,,0.00,meteohub,2014-09-18 14:09:00,
2014-09-18 09:14:00,60.6,56.5,30.12,East,86,2.0,4.0,86,0.00,,,0.00,meteohub,2014-09-18 14:14:00,
2014-09-18 09:19:00,61.3,57.2,30.12,ESE,114,2.0,4.0,86,0.00,,,0.00,meteohub,2014-09-18 14:19:00,
2014-09-18 09:24:00,61.9,57.4,30.12,East,80,3.0,6.0,85,0.00,,,0.00,meteohub,2014-09-18 14:24:00,
2014-09-18 09:29:00,62.2,56.7,30.12,ESE,119,3.0,6.0,82,0.00,,,0.00,meteohub,2014-09-18 14:29:00,
2014-09-18 09:34:00,62.6,57.0,30.12,East,97,4.0,6.0,82,0.00,,,0.00,meteohub,2014-09-18 14:34:00,
2014-09-18 09:39:00,63.1,56.5,30.12,East,91,3.0,7.0,79,0.00,,,0.00,meteohub,2014-09-18 14:39:00,
2014-09-18 09:44:00,63.5,56.5,30.11,East,100,5.0,7.0,78,0.00,,,0.00,meteohub,2014-09-18 14:44:00,
2014-09-18 09:49:00,64.2,56.8,30.12,East,87,4.0,8.0,77,0.00,,,0.00,meteohub,2014-09-18 14:49:00,
2014-09-18 09:54:00,64.6,57.2,30.11,ENE,75,5.0,8.0,77,0.00,,,0.00,meteohub,2014-09-18 14:54:00,
2014-09-18 09:59:00,64.9,56.8,30.11,ESE,104,4.0,8.0,75,0.00,,,0.00,meteohub,2014-09-18 14:59:00,
2014-09-18 10:04:00,65.8,57.0,30.11,East,90,6.0,7.0,73,0.00,,,0.00,meteohub,2014-09-18 15:04:00,
2014-09-18 10:09:00,65.7,56.3,30.11,ENE,78,6.0,7.0,72,0.00,,,0.00,meteohub,2014-09-18 15:09:00,
2014-09-18 10:14:00,65.8,55.8,30.11,ESE,118,7.0,9.0,70,0.00,,,0.00,meteohub,2014-09-18 15:14:00,
2014-09-18 10:19:00,66.2,54.5,30.12,ESE,121,4.0,10.0,66,0.00,,,0.00,meteohub,2014-09-18 15:19:00,
2014-09-18 10:24:00,66.7,55.0,30.11,ESE,109,6.0,10.0,66,0.00,,,0.00,meteohub,2014-09-18 15:24:00,
2014-09-18 10:29:00,66.7,54.1,30.11,ESE,119,7.0,10.0,64,0.00,,,0.00,meteohub,2014-09-18 15:29:00,
2014-09-18 10:34:00,67.1,54.1,30.11,SE,126,7.0,11.0,63,0.00,,,0.00,meteohub,2014-09-18 15:34:00,
2014-09-18 10:39:00,67.3,53.8,30.11,ESE,123,7.0,11.0,62,0.00,,,0.00,meteohub,2014-09-18 15:39:00,
2014-09-18 10:44:00,67.3,52.9,30.11,ESE,119,7.0,11.0,60,0.00,,,0.00,meteohub,2014-09-18 15:44:00,
2014-09-18 10:49:00,67.6,53.2,30.11,SE,133,8.0,11.0,60,0.00,,,0.00,meteohub,2014-09-18 15:49:00,
2014-09-18 10:54:00,68.0,53.1,30.11,SE,141,6.0,12.0,59,0.00,,,0.00,meteohub,2014-09-18 15:54:00,
2014-09-18 10:59:00,68.4,53.1,30.11,ESE,107,4.0,13.0,58,0.00,,,0.00,meteohub,2014-09-18 15:59:00,
2014-09-18 11:04:00,68.4,52.5,30.11,ESE,107,11.0,13.0,57,0.00,,,0.00,meteohub,2014-09-18 16:04:00,
2014-09-18 11:09:00,68.5,52.7,30.11,SE,136,6.0,15.0,57,0.00,,,0.00,meteohub,2014-09-18 16:09:00,
2014-09-18 11:14:00,68.7,52.9,30.10,SE,129,8.0,15.0,57,0.00,,,0.00,meteohub,2014-09-18 16:14:00,
2014-09-18 11:19:00,68.7,52.9,30.10,East,86,9.0,15.0,57,0.00,,,0.00,meteohub,2014-09-18 16:19:00,
2014-09-18 11:24:00,68.9,53.1,30.10,ESE,121,11.0,15.0,57,0.00,,,0.00,meteohub,2014-09-18 16:24:00,
2014-09-18 11:29:00,69.1,52.7,30.10,East,81,7.0,15.0,56,0.00,,,0.00,meteohub,2014-09-18 16:29:00,
2014-09-18 11:34:00,68.9,53.1,30.10,SE,126,4.0,15.0,57,0.00,,,0.00,meteohub,2014-09-18 16:34:00,
2014-09-18 11:39:00,69.6,53.8,30.10,SSE,154,5.0,14.0,57,0.00,,,0.00,meteohub,2014-09-18 16:39:00,
2014-09-18 11:44:00,70.0,54.0,30.10,East,88,9.0,14.0,57,0.00,,,0.00,meteohub,2014-09-18 16:44:00,
2014-09-18 11:49:00,69.6,52.7,30.10,ESE,122,7.0,12.0,55,0.00,,,0.00,meteohub,2014-09-18 16:49:00,
2014-09-18 11:54:00,69.6,53.2,30.10,ENE,77,10.0,14.0,56,0.00,,,0.00,meteohub,2014-09-18 16:54:00,
2014-09-18 11:59:00,69.4,52.5,30.10,East,98,5.0,14.0,55,0.00,,,0.00,meteohub,2014-09-18 16:59:00,
2014-09-18 12:04:00,69.6,53.8,30.10,ESE,122,7.0,13.0,57,0.00,,,0.00,meteohub,2014-09-18 17:04:00,
2014-09-18 12:09:00,70.0,52.5,30.10,East,99,9.0,13.0,54,0.00,,,0.00,meteohub,2014-09-18 17:09:00,
2014-09-18 12:14:00,69.8,52.9,30.10,ENE,71,4.0,13.0,55,0.00,,,0.00,meteohub,2014-09-18 17:14:00,
2014-09-18 12:19:00,69.8,53.4,30.10,East,83,12.0,14.0,56,0.00,,,0.00,meteohub,2014-09-18 17:19:00,
2014-09-18 12:24:00,69.8,52.9,30.10,East,87,9.0,14.0,55,0.00,,,0.00,meteohub,2014-09-18 17:24:00,
2014-09-18 12:29:00,70.0,53.1,30.10,ESE,119,9.0,14.0,55,0.00,,,0.00,meteohub,2014-09-18 17:29:00,
2014-09-18 12:34:00,69.6,52.7,30.09,ESE,107,5.0,14.0,55,0.00,,,0.00,meteohub,2014-09-18 17:34:00,
2014-09-18 12:39:00,70.2,52.2,30.09,SE,135,4.0,14.0,53,0.00,,,0.00,meteohub,2014-09-18 17:39:00,
2014-09-18 12:40:00,70.3,52.9,30.09,ESE,113,6.0,14.0,54,0.00,,,0.00,meteohub,2014-09-18 17:40:00,
2014-09-18 12:45:00,70.3,53.4,30.09,SE,128,8.0,14.0,55,0.00,,,0.00,meteohub,2014-09-18 17:45:00,
2014-09-18 12:50:00,70.5,52.5,30.09,ESE,122,7.0,13.0,53,0.00,,,0.00,meteohub,2014-09-18 17:50:00,
2014-09-18 12:55:00,70.5,53.6,30.09,ESE,119,8.0,13.0,55,0.00,,,0.00,meteohub,2014-09-18 17:55:00,
2014-09-18 13:00:00,70.9,54.0,30.09,East,80,4.0,13.0,55,0.00,,,0.00,meteohub,2014-09-18 18:00:00,
2014-09-18 13:05:00,70.7,53.2,30.09,ESE,113,9.0,12.0,54,0.00,,,0.00,meteohub,2014-09-18 18:05:00,
2014-09-18 13:10:00,70.5,53.1,30.09,ESE,102,6.0,11.0,54,0.00,,,0.00,meteohub,2014-09-18 18:10:00,
2014-09-18 13:15:00,70.9,52.9,30.09,SE,126,9.0,12.0,53,0.00,,,0.00,meteohub,2014-09-18 18:15:00,
2014-09-18 13:20:00,71.1,53.6,30.08,ESE,102,1.0,12.0,54,0.00,,,0.00,meteohub,2014-09-18 18:20:00,
2014-09-18 13:25:00,71.4,54.0,30.08,SE,136,8.0,13.0,54,0.00,,,0.00,meteohub,2014-09-18 18:25:00,
2014-09-18 13:26:00,71.2,53.2,30.08,ESE,119,5.0,13.0,53,0.00,,,0.00,meteohub,2014-09-18 18:26:00,
2014-09-18 13:31:00,71.6,53.6,30.08,SE,128,6.0,13.0,53,0.00,,,0.00,meteohub,2014-09-18 18:31:00,
2014-09-18 13:36:00,71.8,52.2,30.08,SE,133,3.0,13.0,50,0.00,,,0.00,meteohub,2014-09-18 18:36:00,
2014-09-18 13:41:00,71.4,52.3,30.08,ENE,71,5.0,13.0,51,0.00,,,0.00,meteohub,2014-09-18 18:41:00,
2014-09-18 13:46:00,71.4,52.3,30.08,SSE,149,3.0,13.0,51,0.00,,,0.00,meteohub,2014-09-18 18:46:00,
2014-09-18 13:51:00,71.4,52.3,30.08,ENE,71,6.0,12.0,51,0.00,,,0.00,meteohub,2014-09-18 18:51:00,
2014-09-18 13:56:00,71.6,53.1,30.07,East,91,11.0,12.0,52,0.00,,,0.00,meteohub,2014-09-18 18:56:00,
2014-09-18 14:01:00,71.4,51.3,30.07,East,83,13.0,13.0,49,0.00,,,0.00,meteohub,2014-09-18 19:01:00,
2014-09-18 14:06:00,71.4,50.2,30.07,East,90,4.0,13.0,47,0.00,,,0.00,meteohub,2014-09-18 19:06:00,
2014-09-18 14:11:00,71.6,51.4,30.07,ENE,76,2.0,13.0,49,0.00,,,0.00,meteohub,2014-09-18 19:11:00,
2014-09-18 14:16:00,72.0,51.8,30.07,East,79,8.0,14.0,49,0.00,,,0.00,meteohub,2014-09-18 19:16:00,
2014-09-18 14:21:00,71.8,51.6,30.06,SE,129,6.0,14.0,49,0.00,,,0.00,meteohub,2014-09-18 19:21:00,
2014-09-18 14:26:00,71.6,52.0,30.06,ENE,64,6.0,14.0,50,0.00,,,0.00,meteohub,2014-09-18 19:26:00,
2014-09-18 14:31:00,71.6,50.9,30.06,East,79,8.0,14.0,48,0.00,,,0.00,meteohub,2014-09-18 19:31:00,
2014-09-18 14:36:00,71.4,51.8,30.06,ENE,78,6.0,14.0,50,0.00,,,0.00,meteohub,2014-09-18 19:36:00,
2014-09-18 14:41:00,71.8,51.1,30.06,East,94,9.0,14.0,48,0.00,,,0.00,meteohub,2014-09-18 19:41:00,
2014-09-18 14:46:00,72.0,50.7,30.06,SE,136,12.0,14.0,47,0.00,,,0.00,meteohub,2014-09-18 19:46:00,
2014-09-18 14:51:00,72.0,50.7,30.06,East,83,7.0,15.0,47,0.00,,,0.00,meteohub,2014-09-18 19:51:00,
2014-09-18 14:56:00,72.0,52.3,30.06,East,80,6.0,15.0,50,0.00,,,0.00,meteohub,2014-09-18 19:56:00,
2014-09-18 15:01:00,72.5,52.9,30.06,East,80,8.0,15.0,50,0.00,,,0.00,meteohub,2014-09-18 20:01:00,
2014-09-18 15:06:00,72.3,52.7,30.05,East,83,7.0,14.0,50,0.00,,,0.00,meteohub,2014-09-18 20:06:00,
2014-09-18 15:11:00,72.5,52.3,30.05,ESE,113,5.0,14.0,49,0.00,,,0.00,meteohub,2014-09-18 20:11:00,
2014-09-18 15:16:00,72.5,51.1,30.05,SE,125,8.0,15.0,47,0.00,,,0.00,meteohub,2014-09-18 20:16:00,
2014-09-18 15:21:00,72.0,51.3,30.05,SE,125,11.0,15.0,48,0.00,,,0.00,meteohub,2014-09-18 20:21:00,
2014-09-18 15:26:00,72.0,51.8,30.05,ENE,71,10.0,15.0,49,0.00,,,0.00,meteohub,2014-09-18 20:26:00,
2014-09-18 15:31:00,72.0,51.3,30.05,ESE,104,7.0,15.0,48,0.00,,,0.00,meteohub,2014-09-18 20:31:00,
2014-09-18 15:36:00,72.3,51.4,30.05,East,95,7.0,15.0,48,0.00,,,0.00,meteohub,2014-09-18 20:36:00,
2014-09-18 15:41:00,72.3,50.9,30.05,ESE,116,6.0,11.0,47,0.00,,,0.00,meteohub,2014-09-18 20:41:00,
2014-09-18 15:46:00,72.5,51.1,30.05,SE,135,6.0,10.0,47,0.00,,,0.00,meteohub,2014-09-18 20:46:00,
2014-09-18 15:51:00,72.5,51.1,30.05,ESE,118,11.0,12.0,47,0.00,,,0.00,meteohub,2014-09-18 20:51:00,
2014-09-18 15:56:00,72.5,51.6,30.05,ESE,119,9.0,13.0,48,0.00,,,0.00,meteohub,2014-09-18 20:56:00,
2014-09-18 16:01:00,72.7,51.3,30.05,East,94,4.0,13.0,47,0.00,,,0.00,meteohub,2014-09-18 21:01:00,
2014-09-18 16:06:00,72.7,51.3,30.05,SE,138,10.0,13.0,47,0.00,,,0.00,meteohub,2014-09-18 21:06:00,
2014-09-18 16:12:00,72.3,50.9,30.04,ESE,121,4.0,13.0,47,0.00,,,0.00,meteohub,2014-09-18 21:12:00,
2014-09-18 16:17:00,72.7,50.7,30.05,SE,128,5.0,13.0,46,0.00,,,0.00,meteohub,2014-09-18 21:17:00,
2014-09-18 16:22:00,72.7,51.8,30.05,SE,126,8.0,13.0,48,0.00,,,0.00,meteohub,2014-09-18 21:22:00,
2014-09-18 16:27:00,72.9,53.1,30.05,ENE,78,8.0,11.0,50,0.00,,,0.00,meteohub,2014-09-18 21:27:00,
2014-09-18 16:32:00,72.7,52.9,30.05,ENE,71,5.0,11.0,50,0.00,,,0.00,meteohub,2014-09-18 21:32:00,
2014-09-18 16:37:00,72.9,51.4,30.05,East,98,7.0,10.0,47,0.00,,,0.00,meteohub,2014-09-18 21:37:00,
2014-09-18 16:42:00,72.5,51.1,30.05,SE,125,7.0,10.0,47,0.00,,,0.00,meteohub,2014-09-18 21:42:00,
2014-09-18 16:47:00,72.3,52.2,30.04,East,83,4.0,10.0,49,0.00,,,0.00,meteohub,2014-09-18 21:47:00,
2014-09-18 16:52:00,72.5,51.6,30.04,ENE,73,6.0,10.0,48,0.00,,,0.00,meteohub,2014-09-18 21:52:00,
2014-09-18 16:57:00,72.7,51.3,30.04,SE,125,6.0,10.0,47,0.00,,,0.00,meteohub,2014-09-18 21:57:00,
2014-09-18 17:02:00,72.3,51.4,30.04,ENE,73,4.0,10.0,48,0.00,,,0.00,meteohub,2014-09-18 22:02:00,
2014-09-18 17:07:00,72.3,51.4,30.04,ESE,114,4.0,10.0,48,0.00,,,0.00,meteohub,2014-09-18 22:07:00,
2014-09-18 17:12:00,72.3,52.2,30.04,East,83,5.0,10.0,49,0.00,,,0.00,meteohub,2014-09-18 22:12:00,
2014-09-18 17:17:00,72.1,51.4,30.04,SSE,147,8.0,8.0,48,0.00,,,0.00,meteohub,2014-09-18 22:17:00,
2014-09-18 17:22:00,72.0,51.3,30.04,ESE,103,5.0,10.0,48,0.00,,,0.00,meteohub,2014-09-18 22:22:00,
2014-09-18 17:27:00,72.0,51.8,30.04,SE,131,4.0,10.0,49,0.00,,,0.00,meteohub,2014-09-18 22:27:00,
2014-09-18 17:33:00,71.8,51.6,30.04,SE,133,6.0,10.0,49,0.00,,,0.00,meteohub,2014-09-18 22:33:00,
2014-09-18 17:38:00,71.8,52.2,30.04,ESE,112,4.0,9.0,50,0.00,,,0.00,meteohub,2014-09-18 22:38:00,
2014-09-18 17:43:00,71.4,51.8,30.04,ESE,119,6.0,9.0,50,0.00,,,0.00,meteohub,2014-09-18 22:43:00,
2014-09-18 17:45:00,71.4,51.8,30.04,East,83,9.0,9.0,50,0.00,,,0.00,meteohub,2014-09-18 22:45:00,
2014-09-18 17:50:00,71.1,51.4,30.04,ESE,115,8.0,9.0,50,0.00,,,0.00,meteohub,2014-09-18 22:50:00,
2014-09-18 17:55:00,70.9,51.3,30.04,ESE,109,4.0,9.0,50,0.00,,,0.00,meteohub,2014-09-18 22:55:00,
2014-09-18 18:00:00,70.7,52.2,30.04,ESE,107,4.0,9.0,52,0.00,,,0.00,meteohub,2014-09-18 23:00:00,
2014-09-18 18:05:00,70.3,52.3,30.04,ESE,102,4.0,9.0,53,0.00,,,0.00,meteohub,2014-09-18 23:05:00,
2014-09-18 18:10:00,70.0,52.5,30.04,ESE,122,4.0,8.0,54,0.00,,,0.00,meteohub,2014-09-18 23:10:00,
2014-09-18 18:15:00,69.6,52.7,30.04,ESE,123,3.0,7.0,55,0.00,,,0.00,meteohub,2014-09-18 23:15:00,
2014-09-18 18:20:00,69.3,52.9,30.04,ESE,109,2.0,7.0,56,0.00,,,0.00,meteohub,2014-09-18 23:20:00,
2014-09-18 18:25:00,68.5,53.2,30.04,East,90,3.0,7.0,58,0.00,,,0.00,meteohub,2014-09-18 23:25:00,
2014-09-18 18:30:00,68.2,53.2,30.05,East,95,2.0,6.0,59,0.00,,,0.00,meteohub,2014-09-18 23:30:00,
2014-09-18 18:35:00,67.5,53.1,30.05,East,93,3.0,4.0,60,0.00,,,0.00,meteohub,2014-09-18 23:35:00,
2014-09-18 18:38:00,67.1,53.2,30.05,East,93,1.0,4.0,61,0.00,,,0.00,meteohub,2014-09-18 23:38:00,
2014-09-18 18:43:00,66.6,53.6,30.05,East,91,1.0,4.0,63,0.00,,,0.00,meteohub,2014-09-18 23:43:00,
2014-09-18 18:48:00,65.8,53.2,30.05,East,90,2.0,4.0,64,0.00,,,0.00,meteohub,2014-09-18 23:48:00,
2014-09-18 18:53:00,65.1,53.4,30.05,ESE,107,2.0,3.0,66,0.00,,,0.00,meteohub,2014-09-18 23:53:00,
2014-09-18 18:58:00,64.6,53.4,30.05,ESE,103,3.0,3.0,67,0.00,,,0.00,meteohub,2014-09-18 23:58:00,
2014-09-18 19:03:00,63.7,53.2,30.05,ESE,102,3.0,3.0,69,0.00,,,0.00,meteohub,2014-09-19 00:03:00,
2014-09-18 19:08:00,63.1,53.2,30.05,ESE,102,2.0,3.0,70,0.00,,,0.00,meteohub,2014-09-19 00:08:00,
2014-09-18 19:12:00,62.6,53.1,30.05,ESE,102,2.0,3.0,71,0.00,,,0.00,meteohub,2014-09-19 00:12:00,
2014-09-18 19:17:00,62.1,53.2,30.05,East,93,2.0,3.0,73,0.00,,,0.00,meteohub,2014-09-19 00:17:00,
2014-09-18 19:22:00,61.3,53.1,30.05,East,94,2.0,3.0,74,0.00,,,0.00,meteohub,2014-09-19 00:22:00,
2014-09-18 19:27:00,61.3,53.1,30.05,East,94,2.0,3.0,74,0.00,,,0.00,meteohub,2014-09-19 00:27:00,
2014-09-18 19:32:00,61.2,53.2,30.05,East,93,1.0,2.0,75,0.00,,,0.00,meteohub,2014-09-19 00:32:00,
2014-09-18 19:37:00,60.6,53.1,30.06,East,93,1.0,2.0,76,0.00,,,0.00,meteohub,2014-09-19 00:37:00,
2014-09-18 19:42:00,60.4,52.9,30.06,East,89,1.0,2.0,76,0.00,,,0.00,meteohub,2014-09-19 00:42:00,
2014-09-18 19:47:00,60.3,52.7,30.06,East,90,2.0,2.0,76,0.00,,,0.00,meteohub,2014-09-19 00:47:00,
2014-09-18 19:52:00,60.1,52.5,30.06,East,90,2.0,2.0,76,0.00,,,0.00,meteohub,2014-09-19 00:52:00,
2014-09-18 19:57:00,60.1,52.9,30.06,East,90,2.0,2.0,77,0.00,,,0.00,meteohub,2014-09-19 00:57:00,
2014-09-18 20:02:00,59.9,52.7,30.06,East,90,2.0,2.0,77,0.00,,,0.00,meteohub,2014-09-19 01:02:00,
2014-09-18 20:08:00,59.5,52.3,30.07,East,88,2.0,3.0,77,0.00,,,0.00,meteohub,2014-09-19 01:08:00,
2014-09-18 20:13:00,59.5,52.3,30.07,East,86,2.0,3.0,77,0.00,,,0.00,meteohub,2014-09-19 01:13:00,
2014-09-18 20:18:00,59.2,52.3,30.07,ENE,78,2.0,4.0,78,0.00,,,0.00,meteohub,2014-09-19 01:18:00,
2014-09-18 20:23:00,58.8,52.3,30.07,ENE,78,2.0,4.0,79,0.00,,,0.00,meteohub,2014-09-19 01:23:00,
2014-09-18 20:27:00,58.6,52.2,30.08,East,87,2.0,4.0,79,0.00,,,0.00,meteohub,2014-09-19 01:27:00,
2014-09-18 20:33:00,58.5,52.0,30.08,East,87,0.0,3.0,79,0.00,,,0.00,meteohub,2014-09-19 01:33:00,
2014-09-18 20:38:00,57.9,51.8,30.08,East,87,1.0,3.0,80,0.00,,,0.00,meteohub,2014-09-19 01:38:00,
2014-09-18 20:43:00,57.6,51.4,30.08,East,87,1.0,3.0,80,0.00,,,0.00,meteohub,2014-09-19 01:43:00,
2014-09-18 20:48:00,57.6,51.4,30.08,East,87,2.0,2.0,80,0.00,,,0.00,meteohub,2014-09-19 01:48:00,
2014-09-18 20:53:00,57.9,51.4,30.08,East,87,2.0,2.0,79,0.00,,,0.00,meteohub,2014-09-19 01:53:00,
2014-09-18 20:58:00,58.1,51.6,30.08,East,87,2.0,3.0,79,0.00,,,0.00,meteohub,2014-09-19 01:58:00,
2014-09-18 21:03:00,57.7,51.6,30.09,ENE,69,4.0,4.0,80,0.00,,,0.00,meteohub,2014-09-19 02:03:00,
2014-09-18 21:08:00,57.4,51.6,30.09,ENE,68,3.0,5.0,81,0.00,,,0.00,meteohub,2014-09-19 02:08:00,
2014-09-18 21:13:00,57.0,51.6,30.09,ENE,78,5.0,5.0,82,0.00,,,0.00,meteohub,2014-09-19 02:13:00,
2014-09-18 21:18:00,57.0,51.6,30.09,ESE,108,4.0,5.0,82,0.00,,,0.00,meteohub,2014-09-19 02:18:00,
2014-09-18 21:23:00,57.2,52.2,30.09,East,94,4.0,6.0,83,0.00,,,0.00,meteohub,2014-09-19 02:23:00,
2014-09-18 21:28:00,56.7,52.2,30.09,ESE,111,3.0,7.0,85,0.00,,,0.00,meteohub,2014-09-19 02:28:00,
2014-09-18 21:33:00,56.5,52.3,30.09,East,96,3.0,7.0,86,0.00,,,0.00,meteohub,2014-09-19 02:33:00,
2014-09-18 21:38:00,56.8,53.1,30.09,ESE,116,5.0,7.0,87,0.00,,,0.00,meteohub,2014-09-19 02:38:00,
2014-09-18 21:43:00,57.0,53.4,30.09,ESE,104,5.0,8.0,88,0.00,,,0.00,meteohub,2014-09-19 02:43:00,
2014-09-18 21:48:00,57.2,53.6,30.09,East,84,9.0,9.0,88,0.00,,,0.00,meteohub,2014-09-19 02:48:00,
2014-09-18 21:53:00,57.2,53.6,30.09,East,88,6.0,9.0,88,0.00,,,0.00,meteohub,2014-09-19 02:53:00,
2014-09-18 21:58:00,57.2,53.6,30.10,East,97,7.0,9.0,88,0.00,,,0.00,meteohub,2014-09-19 02:58:00,
2014-09-18 22:03:00,57.0,53.4,30.10,ESE,105,5.0,11.0,88,0.00,,,0.00,meteohub,2014-09-19 03:03:00,
2014-09-18 22:08:00,56.7,53.4,30.10,East,93,4.0,11.0,89,0.00,,,0.00,meteohub,2014-09-19 03:08:00,
2014-09-18 22:13:00,56.5,53.6,30.10,East,91,6.0,11.0,90,0.00,,,0.00,meteohub,2014-09-19 03:13:00,
2014-09-18 22:18:00,56.1,53.2,30.10,East,101,6.0,9.0,90,0.00,,,0.00,meteohub,2014-09-19 03:18:00,
2014-09-18 22:23:00,55.9,53.4,30.10,ESE,108,2.0,8.0,91,0.00,,,0.00,meteohub,2014-09-19 03:23:00,
2014-09-18 22:28:00,55.6,53.1,30.10,ESE,112,2.0,8.0,91,0.00,,,0.00,meteohub,2014-09-19 03:28:00,
2014-09-18 22:33:00,55.2,52.9,30.11,East,93,3.0,8.0,92,0.00,,,0.00,meteohub,2014-09-19 03:33:00,
2014-09-18 22:38:00,55.0,52.7,30.11,East,98,3.0,8.0,92,0.00,,,0.00,meteohub,2014-09-19 03:38:00,
2014-09-18 22:43:00,54.7,52.7,30.11,ESE,108,3.0,6.0,93,0.00,,,0.00,meteohub,2014-09-19 03:43:00,
2014-09-18 22:48:00,54.3,52.3,30.11,ESE,114,2.0,6.0,93,0.00,,,0.00,meteohub,2014-09-19 03:48:00,
2014-09-18 22:53:00,54.1,52.2,30.11,ESE,115,2.0,6.0,93,0.00,,,0.00,meteohub,2014-09-19 03:53:00,
2014-09-18 22:58:00,54.0,52.3,30.11,ESE,110,2.0,5.0,94,0.00,,,0.00,meteohub,2014-09-19 03:58:00,
2014-09-18 23:03:00,53.6,52.0,30.11,East,97,2.0,4.0,94,0.00,,,0.00,meteohub,2014-09-19 04:03:00,